Time;durP1;ratioP1;P1;durP2;ratioP2;P2;SDS_P1;SDS_P2;PMS_P1;PMS_P2;Temp;Humidity;BMP_temperature;BMP_pressure;BME280_temperature;BME280_humidity;BME280_pressure;Samples;Min_cycle;Max_cycle;Signal;HPM_P1;HPM_P2
2022/04/22 00:00:17;;;;;;;50.70;25.20;;;;;;;6.28;100.00;98919.06;103501;1303;24307;-23
2022/04/22 00:02:46;;;;;;;43.60;22.50;;;;;;;6.25;100.00;98919.80;103405;1303;24996;-28
2022/04/22 00:05:16;;;;;;;47.10;21.50;;;;;;;6.25;100.00;98919.84;103431;1303;25114;-24
2022/04/22 00:07:45;;;;;;;84.40;29.90;;;;;;;6.26;100.00;98918.18;103497;1303;23954;-28
2022/04/22 00:10:16;;;;;;;55.80;26.10;;;;;;;6.27;100.00;98916.74;103454;1303;23977;-24
2022/04/22 00:12:45;;;;;;;91.50;35.50;;;;;;;6.27;99.98;98913.88;103407;1303;22806;-28
2022/04/22 00:15:14;;;;;;;75.60;30.00;;;;;;;6.26;99.95;98907.25;103549;1303;23787;-30
2022/04/22 00:17:43;;;;;;;74.70;27.40;;;;;;;6.26;100.00;98902.05;103354;1303;22502;-28
2022/04/22 00:20:13;;;;;;;55.70;25.70;;;;;;;6.26;99.94;98897.20;103434;1303;23628;-25
2022/04/22 00:22:42;;;;;;;70.60;33.10;;;;;;;6.30;100.00;98896.70;103483;1303;23599;-28
2022/04/22 00:25:12;;;;;;;74.70;32.60;;;;;;;6.33;100.00;98894.33;103439;1303;24323;-25
2022/04/22 00:27:41;;;;;;;64.70;28.90;;;;;;;6.31;99.73;98893.67;103491;1303;24387;-29
2022/04/22 00:30:11;;;;;;;63.40;28.70;;;;;;;6.30;99.76;98895.19;103431;1303;23869;-30
2022/04/22 00:32:40;;;;;;;70.80;27.40;;;;;;;6.30;98.29;98892.86;103438;1303;23248;-24
2022/04/22 00:35:09;;;;;;;60.60;29.60;;;;;;;6.29;96.94;98896.48;103495;1303;22790;-28
2022/04/22 00:37:40;;;;;;;52.20;25.00;;;;;;;6.25;97.58;98893.99;103465;1303;23628;-24
2022/04/22 00:40:09;;;;;;;54.20;23.90;;;;;;;6.23;96.58;98890.88;103254;1303;23964;-23
2022/04/22 00:42:39;;;;;;;54.70;25.90;;;;;;;6.19;96.24;98887.75;103425;1303;22519;-25
2022/04/22 00:45:09;;;;;;;77.70;31.20;;;;;;;6.19;97.00;98888.39;103427;1303;23622;-25
2022/04/22 00:47:38;;;;;;;66.70;28.70;;;;;;;6.17;96.61;98890.13;103463;1303;23609;-25
2022/04/22 00:50:07;;;;;;;60.40;26.90;;;;;;;6.18;96.77;98883.23;103430;1303;23789;-29
2022/04/22 00:52:36;;;;;;;58.90;25.30;;;;;;;6.20;96.28;98885.20;103426;1303;22496;-25
2022/04/22 00:55:06;;;;;;;73.90;26.50;;;;;;;6.19;95.94;98880.65;103441;1303;23712;-26
2022/04/22 00:57:35;;;;;;;47.10;22.30;;;;;;;6.22;95.99;98881.23;103475;1303;25408;-25
2022/04/22 01:00:05;;;;;;;44.40;21.00;;;;;;;6.26;96.21;98876.95;103497;1303;22498;-25
2022/04/22 01:02:34;;;;;;;36.50;20.00;;;;;;;6.16;96.33;98878.54;103460;1303;25093;-29
2022/04/22 01:10:08;;;;;;;34.70;21.00;;;;;;;6.10;98.31;98862.73;103276;1303;23606;-28
2022/04/22 01:12:37;;;;;;;51.60;25.30;;;;;;;6.21;98.05;98864.30;103466;1303;22624;-25
2022/04/22 01:15:06;;;;;;;42.40;21.80;;;;;;;6.29;97.80;98867.59;103492;1303;23612;-26
2022/04/22 01:17:36;;;;;;;37.40;21.10;;;;;;;6.23;97.56;98869.52;103490;1303;25060;-28
2022/04/22 01:20:06;;;;;;;34.10;18.90;;;;;;;6.22;97.36;98870.02;103501;1303;24301;-25
2022/04/22 01:22:35;;;;;;;36.40;18.60;;;;;;;6.32;97.06;98877.19;103427;1303;24281;-29
2022/04/22 01:25:04;;;;;;;40.20;20.50;;;;;;;6.28;97.14;98875.34;103493;1303;23606;-29
2022/04/22 01:27:33;;;;;;;36.90;19.70;;;;;;;6.17;97.52;98874.23;103429;1303;24686;-28
2022/04/22 01:30:03;;;;;;;45.30;20.40;;;;;;;6.06;97.91;98874.20;103447;1303;23739;-24
2022/04/22 01:32:32;;;;;;;35.60;18.50;;;;;;;6.07;98.48;98878.40;103441;1303;22501;-25
2022/04/22 01:35:03;;;;;;;31.10;15.10;;;;;;;6.08;98.70;98873.63;103484;1303;24211;-28
2022/04/22 01:37:32;;;;;;;29.00;17.30;;;;;;;6.09;98.95;98877.38;103417;1303;22513;-25
2022/04/22 01:40:01;;;;;;;28.30;16.80;;;;;;;6.03;99.39;98877.02;103416;1302;24240;-25
2022/04/22 01:42:30;;;;;;;36.00;16.50;;;;;;;6.06;99.79;98879.34;103298;1303;24221;-24
2022/04/22 01:44:59;;;;;;;33.50;16.50;;;;;;;6.10;100.00;98874.23;103473;1303;24269;-25
2022/04/22 01:47:29;;;;;;;36.60;16.20;;;;;;;6.16;99.88;98874.81;103466;1302;23802;-25
2022/04/22 01:49:59;;;;;;;41.90;15.20;;;;;;;6.19;99.65;98872.89;103454;1303;22489;-29
2022/04/22 01:52:29;;;;;;;28.50;15.50;;;;;;;6.19;99.67;98868.55;103413;1302;22931;-24
2022/04/22 01:54:58;;;;;;;32.90;16.90;;;;;;;6.14;100.00;98864.57;103438;1303;22507;-28
2022/04/22 01:57:27;;;;;;;33.60;18.60;;;;;;;6.16;100.00;98857.04;103428;1303;23597;-25
2022/04/22 01:59:58;;;;;;;23.90;13.00;;;;;;;6.21;100.00;98855.53;103469;1303;23594;-25
2022/04/22 02:02:28;;;;;;;21.00;12.50;;;;;;;6.26;100.00;98855.79;103419;1303;22833;-25
2022/04/22 02:04:57;;;;;;;36.90;17.50;;;;;;;6.36;100.00;98852.15;103408;1303;23005;-25
2022/04/22 02:07:26;;;;;;;31.70;19.10;;;;;;;6.41;100.00;98848.89;103467;1303;22889;-28
2022/04/22 02:09:55;;;;;;;43.20;20.30;;;;;;;6.45;100.00;98844.07;103375;1303;22635;-29
2022/04/22 02:12:25;;;;;;;30.40;14.90;;;;;;;6.50;100.00;98843.77;103467;1303;23854;-28
2022/04/22 02:14:54;;;;;;;38.90;19.10;;;;;;;6.52;100.00;98842.52;103408;1303;23599;-24
2022/04/22 02:17:23;;;;;;;47.00;23.30;;;;;;;6.58;100.00;98837.64;103472;1303;23608;-26
2022/04/22 02:19:52;;;;;;;54.90;25.90;;;;;;;6.56;100.00;98831.83;103286;1303;22793;-28
2022/04/22 02:22:22;;;;;;;56.40;23.10;;;;;;;6.54;100.00;98832.16;103425;1303;24982;-27
2022/04/22 02:24:51;;;;;;;82.50;33.50;;;;;;;6.52;100.00;98833.84;103361;1303;25338;-26
2022/04/22 02:29:52;;;;;;;80.90;30.40;;;;;;;6.47;100.00;98828.62;103480;1303;22727;-28
2022/04/22 02:32:21;;;;;;;79.90;30.20;;;;;;;6.50;99.91;98824.73;103442;1303;22499;-25
2022/04/22 02:34:50;;;;;;;69.20;26.00;;;;;;;6.52;99.86;98825.21;103451;1303;23738;-28
2022/04/22 02:37:19;;;;;;;55.80;24.70;;;;;;;6.56;99.41;98825.05;103413;1302;22504;-29
2022/04/22 02:39:48;;;;;;;50.20;23.70;;;;;;;6.60;99.25;98825.71;103505;1303;22974;-25
2022/04/22 02:47:23;;;;;;;42.00;22.70;;;;;;;6.61;99.30;98828.20;103488;1303;22760;-28
2022/04/22 02:49:52;;;;;;;43.80;22.00;;;;;;;6.59;99.09;98827.76;103389;1303;23614;-29
2022/04/22 02:52:21;;;;;;;52.00;24.60;;;;;;;6.59;99.14;98822.58;103438;1303;23514;-25
2022/04/22 02:54:50;;;;;;;48.70;23.10;;;;;;;6.53;98.13;98822.59;103441;1303;23774;-28
2022/04/22 02:57:19;;;;;;;48.80;22.20;;;;;;;6.47;98.00;98816.65;103441;1303;23632;-28
2022/04/22 02:59:48;;;;;;;54.10;25.80;;;;;;;6.44;97.77;98820.45;103442;1303;22517;-28
2022/04/22 03:02:17;;;;;;;40.50;22.90;;;;;;;6.40;97.81;98815.31;103477;1303;25022;-25
2022/04/22 03:04:47;;;;;;;49.00;23.80;;;;;;;6.40;97.88;98817.73;103385;1302;24352;-25
2022/04/22 03:07:16;;;;;;;39.60;20.70;;;;;;;6.40;98.04;98819.63;103348;1303;26163;-24
2022/04/22 03:09:45;;;;;;;43.90;22.30;;;;;;;6.38;97.69;98817.95;103430;1303;22806;-29
2022/04/22 03:12:15;;;;;;;47.20;23.20;;;;;;;6.33;97.88;98822.11;103373;1303;23803;-28
2022/04/22 03:14:44;;;;;;;42.20;21.50;;;;;;;6.31;98.09;98821.98;103404;1303;23609;-29
2022/04/22 03:17:13;;;;;;;53.40;23.70;;;;;;;6.32;97.99;98818.73;103403;1303;23078;-28
2022/04/22 03:19:43;;;;;;;42.40;19.80;;;;;;;6.28;98.49;98818.80;103458;1303;23874;-28
2022/04/22 03:22:12;;;;;;;56.90;22.80;;;;;;;6.27;99.65;98813.45;103414;1303;23836;-28
2022/04/22 03:24:41;;;;;;;39.70;21.30;;;;;;;6.27;99.95;98810.09;103444;1303;22511;-25
2022/04/22 03:27:10;;;;;;;56.40;24.20;;;;;;;6.30;100.00;98806.69;103443;1303;22632;-28
2022/04/22 03:29:39;;;;;;;65.30;27.10;;;;;;;6.36;99.63;98810.25;103485;1303;24367;-25
2022/04/22 03:32:10;;;;;;;41.70;22.20;;;;;;;6.32;98.68;98809.91;103437;1303;24126;-28
2022/04/22 03:34:39;;;;;;;41.70;19.30;;;;;;;6.23;99.97;98810.69;103460;1303;24238;-24
2022/04/22 03:37:08;;;;;;;39.00;19.90;;;;;;;6.21;100.00;98806.88;103464;1303;24218;-28
2022/04/22 03:39:37;;;;;;;36.70;21.60;;;;;;;6.20;100.00;98800.52;103468;1303;24354;-24
2022/04/22 03:42:07;;;;;;;49.20;26.00;;;;;;;6.21;100.00;98802.20;103448;1303;23799;-24
2022/04/22 03:44:36;;;;;;;44.60;22.50;;;;;;;6.21;100.00;98800.64;103464;1303;25104;-25
2022/04/22 03:47:07;;;;;;;40.00;20.70;;;;;;;6.24;100.00;98800.05;103479;1302;22768;-25
2022/04/22 03:49:36;;;;;;;64.90;30.40;;;;;;;6.29;100.00;98798.35;103483;1303;25276;-28
2022/04/22 03:52:05;;;;;;;41.80;23.70;;;;;;;6.30;100.00;98795.20;103480;1303;24233;-28
2022/04/22 03:54:34;;;;;;;62.00;28.20;;;;;;;6.29;100.00;98794.55;103386;1303;24015;-28
2022/04/22 03:59:36;;;;;;;44.70;22.70;;;;;;;6.25;100.00;98794.46;103449;1303;22528;-28
2022/04/22 04:02:05;;;;;;;51.20;25.00;;;;;;;6.28;100.00;98787.66;103497;1303;22502;-25
2022/04/22 04:04:35;;;;;;;46.70;26.00;;;;;;;6.29;100.00;98784.55;103554;1303;24218;-29
2022/04/22 04:07:04;;;;;;;40.00;23.00;;;;;;;6.25;100.00;98787.86;103398;1302;22492;-25
2022/04/22 04:17:14;;;;;;;39.30;22.90;;;;;;;6.21;100.00;98782.70;103484;1303;24310;-28
2022/04/22 04:24:48;;;;;;;56.80;28.20;;;;;;;6.19;100.00;98784.70;103438;1303;23778;-29
2022/04/22 04:27:17;;;;;;;61.20;28.40;;;;;;;6.18;100.00;98783.71;103497;1303;22508;-28
2022/04/22 04:29:46;;;;;;;43.80;23.60;;;;;;;6.22;100.00;98779.70;103456;1303;23609;-25
2022/04/22 04:32:17;;;;;;;50.90;25.40;;;;;;;6.27;100.00;98775.95;103452;1303;22617;-28
2022/04/22 04:34:46;;;;;;;46.40;22.50;;;;;;;6.23;100.00;98774.39;103454;1303;25005;-29
2022/04/22 04:37:15;;;;;;;51.10;27.90;;;;;;;6.28;100.00;98781.26;103463;1303;24217;-24
2022/04/22 04:39:44;;;;;;;47.40;27.00;;;;;;;6.35;100.00;98788.05;103297;1303;23754;-24
2022/04/22 04:42:13;;;;;;;63.30;30.00;;;;;;;6.39;100.00;98791.25;103404;1303;24995;-28
2022/04/22 04:44:42;;;;;;;57.30;24.80;;;;;;;6.45;100.00;98794.00;103249;1303;22517;-25
2022/04/22 04:47:11;;;;;;;61.30;28.20;;;;;;;6.54;100.00;98797.55;103471;1303;22508;-27
2022/04/22 04:49:40;;;;;;;62.90;31.80;;;;;;;6.69;100.00;98798.17;103456;1303;24240;-28
2022/04/22 04:52:09;;;;;;;62.80;32.30;;;;;;;6.71;100.00;98800.65;103440;1303;24998;-25
2022/04/22 04:54:38;;;;;;;48.90;28.70;;;;;;;6.70;100.00;98800.56;103457;1303;23563;-28
2022/04/22 04:57:06;;;;;;;75.70;32.80;;;;;;;6.70;100.00;98790.27;103473;1301;24240;-25
2022/04/22 04:59:36;;;;;;;64.50;30.20;;;;;;;6.81;100.00;98789.36;103264;1303;24200;-29
2022/04/22 05:02:05;;;;;;;61.00;32.40;;;;;;;6.80;100.00;98796.54;103423;1302;24970;-30
2022/04/22 05:04:34;;;;;;;77.80;33.50;;;;;;;6.79;100.00;98800.23;103439;1303;24233;-25
2022/04/22 05:07:03;;;;;;;61.30;32.20;;;;;;;6.83;100.00;98802.16;103467;1303;24345;-29
2022/04/22 05:09:32;;;;;;;65.10;28.80;;;;;;;6.89;100.00;98800.46;103454;1303;24655;-25
2022/04/22 05:12:02;;;;;;;60.20;28.70;;;;;;;6.90;100.00;98798.46;103461;1303;22676;-29
2022/04/22 05:14:30;;;;;;;65.70;28.40;;;;;;;7.01;100.00;98799.24;103411;1303;24245;-29
2022/04/22 05:16:59;;;;;;;66.50;28.20;;;;;;;7.13;100.00;98800.14;103423;1303;23606;-25
2022/04/22 05:19:28;;;;;;;60.40;28.70;;;;;;;7.19;100.00;98803.34;103529;1303;24252;-29
2022/04/22 05:21:57;;;;;;;70.30;30.70;;;;;;;7.29;100.00;98800.69;103415;1303;24010;-28
2022/04/22 05:24:26;;;;;;;53.20;27.10;;;;;;;7.34;100.00;98796.50;103455;1303;23830;-25
2022/04/22 05:26:55;;;;;;;69.50;29.50;;;;;;;7.38;100.00;98793.12;103502;1303;22503;-25
2022/04/22 05:34:29;;;;;;;61.90;33.30;;;;;;;7.36;100.00;98798.50;103426;1303;25103;-28
2022/04/22 05:36:59;;;;;;;54.40;28.50;;;;;;;7.44;100.00;98793.27;103406;1303;23653;-29
2022/04/22 05:39:28;;;;;;;52.30;25.70;;;;;;;7.51;100.00;98792.73;103517;1303;23608;-28
2022/04/22 05:41:59;;;;;;;47.70;26.70;;;;;;;7.59;99.84;98789.30;103442;1303;23816;-29
2022/04/22 05:44:28;;;;;;;41.30;23.80;;;;;;;7.65;99.53;98791.94;103452;1303;24347;-28
2022/04/22 05:46:57;;;;;;;57.60;24.50;;;;;;;7.60;99.61;98795.80;103420;1303;22719;-28
2022/04/22 05:49:27;;;;;;;49.20;22.50;;;;;;;7.78;98.84;98789.04;103453;1303;23832;-24
2022/04/22 05:51:56;;;;;;;54.90;25.40;;;;;;;7.65;99.27;98789.39;103416;1303;22846;-25
2022/04/22 05:54:25;;;;;;;41.40;20.50;;;;;;;7.77;99.17;98785.71;103462;1303;25226;-28
2022/04/22 05:56:54;;;;;;;49.90;21.50;;;;;;;7.76;99.09;98790.30;103475;1302;23821;-31
2022/04/22 05:59:22;;;;;;;39.10;19.50;;;;;;;7.90;98.31;98792.14;103422;1303;22749;-29
2022/04/22 06:01:51;;;;;;;40.00;19.60;;;;;;;7.84;97.79;98785.15;103413;1303;24218;-25
2022/04/22 06:04:20;;;;;;;35.60;18.60;;;;;;;7.81;97.88;98785.74;103362;1302;24298;-25
2022/04/22 06:06:49;;;;;;;41.00;22.80;;;;;;;7.86;97.82;98785.79;103465;1303;22525;-29
2022/04/22 06:11:51;;;;;;;43.40;20.90;;;;;;;7.93;97.46;98786.41;103404;1303;23875;-29
2022/04/22 06:14:20;;;;;;;53.10;25.50;;;;;;;7.89;97.96;98784.98;103444;1302;23369;-27
2022/04/22 06:16:48;;;;;;;43.50;18.60;;;;;;;7.98;97.88;98787.88;103427;1303;24020;-29
2022/04/22 06:19:18;;;;;;;43.20;18.90;;;;;;;8.15;96.55;98791.58;103323;1303;24302;-29
2022/04/22 06:21:47;;;;;;;40.10;20.40;;;;;;;8.05;96.99;98796.61;103391;1303;23738;-24
2022/04/22 06:24:16;;;;;;;39.40;20.70;;;;;;;8.13;96.40;98798.77;103435;1303;25101;-31
2022/04/22 06:26:45;;;;;;;36.70;20.50;;;;;;;8.02;96.48;98800.12;103279;1303;24214;-28
2022/04/22 06:29:15;;;;;;;38.00;19.80;;;;;;;8.06;96.88;98799.05;103511;1303;23872;-28
2022/04/22 06:31:44;;;;;;;37.30;20.30;;;;;;;8.16;96.18;98793.23;103425;1303;24313;-25
2022/04/22 06:34:13;;;;;;;57.50;20.10;;;;;;;8.15;95.94;98790.68;103485;1303;25012;-31
2022/04/22 06:36:43;;;;;;;37.60;20.10;;;;;;;8.17;95.91;98789.70;103477;1303;22519;-23
2022/04/22 06:39:13;;;;;;;37.80;21.20;;;;;;;8.21;96.02;98784.83;103465;1303;23900;-25
2022/04/22 06:46:48;;;;;;;33.00;18.50;;;;;;;8.31;95.53;98792.96;103456;1303;24310;-25
2022/04/22 06:49:17;;;;;;;40.00;21.40;;;;;;;8.35;95.24;98800.11;103447;1303;24265;-29
2022/04/22 06:51:46;;;;;;;44.50;18.70;;;;;;;8.31;95.54;98798.00;103447;1303;23603;-29
2022/04/22 06:54:15;;;;;;;41.70;21.40;;;;;;;8.31;96.22;98796.59;103479;1303;22515;-29
2022/04/22 06:56:45;;;;;;;43.60;19.60;;;;;;;8.42;95.81;98794.19;103409;1303;22518;-25
2022/04/22 06:59:19;;;;;;;40.40;21.80;;;;;;;8.37;95.53;98791.69;103494;1303;24255;-29
2022/04/22 07:01:48;;;;;;;31.30;18.20;;;;;;;8.42;95.26;98792.77;103380;1303;24240;-29
2022/04/22 07:04:18;;;;;;;40.30;20.20;;;;;;;8.40;95.49;98793.06;103462;1303;22488;-28
2022/04/22 07:06:47;;;;;;;46.10;20.90;;;;;;;8.42;95.30;98799.45;103303;1303;22935;-27
2022/04/22 07:09:17;;;;;;;45.00;21.70;;;;;;;8.43;95.85;98799.10;103470;1303;23923;-29
2022/04/22 07:11:46;;;;;;;50.60;24.70;;;;;;;8.60;94.83;98795.85;103455;1303;23821;-25
2022/04/22 07:14:15;;;;;;;32.60;17.60;;;;;;;8.53;94.01;98795.29;103475;1302;23761;-25
2022/04/22 07:16:45;;;;;;;45.00;22.10;;;;;;;8.36;94.64;98796.91;103290;1304;24332;-29
2022/04/22 07:19:14;;;;;;;47.60;22.00;;;;;;;8.36;94.85;98796.24;103421;1303;22501;-24
2022/04/22 07:21:43;;;;;;;45.90;21.90;;;;;;;8.29;95.25;98795.38;103434;1303;23504;-25
2022/04/22 07:24:13;;;;;;;38.00;20.10;;;;;;;8.33;95.28;98793.38;103311;1303;23800;-29
2022/04/22 07:26:43;;;;;;;36.60;21.80;;;;;;;8.40;95.17;98796.45;103457;1303;25143;-25
2022/04/22 07:29:13;;;;;;;42.10;22.40;;;;;;;8.41;94.87;98798.31;103415;1303;23812;-25
2022/04/22 07:31:42;;;;;;;40.10;20.40;;;;;;;8.62;93.57;98799.00;103444;1303;22499;-31
2022/04/22 07:34:11;;;;;;;43.60;22.10;;;;;;;8.44;94.24;98800.10;103439;1303;24321;-29
2022/04/22 07:36:41;;;;;;;38.70;21.40;;;;;;;8.44;94.75;98802.08;103465;1303;25395;-25
2022/04/22 07:39:11;;;;;;;37.40;20.90;;;;;;;8.45;94.56;98804.02;103486;1303;24322;-25
2022/04/22 07:41:40;;;;;;;44.90;22.90;;;;;;;8.55;94.25;98808.30;103775;1303;23636;-25
2022/04/22 07:46:57;;;;;;;33.20;18.00;;;;;;;8.50;93.95;98806.98;103454;1303;22516;-26
2022/04/22 07:49:28;;;;;;;27.60;17.20;;;;;;;8.60;93.62;98812.63;103401;1303;23998;-26
2022/04/22 07:51:57;;;;;;;38.30;18.70;;;;;;;8.76;92.68;98811.66;103494;1303;25353;-23
2022/04/22 07:54:27;;;;;;;27.20;16.10;;;;;;;8.75;91.30;98809.93;103419;1303;23520;-25
2022/04/22 07:56:56;;;;;;;29.40;16.70;;;;;;;8.74;91.47;98809.92;103425;1303;24241;-31
2022/04/22 07:59:28;;;;;;;39.70;17.90;;;;;;;8.65;91.75;98814.49;103421;1303;24282;-28
2022/04/22 08:04:30;;;;;;;22.80;13.20;;;;;;;8.77;91.01;98806.60;103470;1303;23648;-29
2022/04/22 08:06:59;;;;;;;19.90;12.10;;;;;;;8.84;89.50;98813.40;103241;1303;24221;-25
2022/04/22 08:09:28;;;;;;;23.40;13.10;;;;;;;8.80;89.60;98818.19;103371;1303;24678;-28
2022/04/22 08:11:57;;;;;;;28.00;14.10;;;;;;;8.79;90.08;98822.84;103462;1303;24215;-25
2022/04/22 08:14:27;;;;;;;21.90;12.60;;;;;;;8.92;89.39;98824.21;103438;1303;24237;-29
2022/04/22 08:16:56;;;;;;;18.60;12.10;;;;;;;8.88;89.60;98828.23;103423;1303;23538;-29
2022/04/22 08:19:25;;;;;;;18.40;11.20;;;;;;;8.98;89.26;98831.63;103300;1303;23998;-28
2022/04/22 08:21:55;;;;;;;15.70;10.30;;;;;;;8.98;89.23;98832.64;103482;1303;24196;-31
2022/04/22 08:24:24;;;;;;;15.00;10.40;;;;;;;9.13;87.42;98830.84;103436;1303;24352;-29
2022/04/22 08:26:53;;;;;;;15.90;10.60;;;;;;;9.06;87.27;98836.14;103430;1303;22822;-29
2022/04/22 08:29:22;;;;;;;14.80;8.90;;;;;;;9.06;87.05;98833.30;103474;1303;24475;-29
2022/04/22 08:31:52;;;;;;;13.70;8.30;;;;;;;9.06;86.72;98833.80;103409;1303;22629;-25
2022/04/22 08:34:21;;;;;;;16.80;9.90;;;;;;;9.04;86.96;98828.44;103444;1303;24754;-25
2022/04/22 08:36:50;;;;;;;21.70;10.30;;;;;;;9.08;87.04;98831.09;103431;1303;22519;-25
2022/04/22 08:39:19;;;;;;;14.40;9.40;;;;;;;9.17;86.97;98831.31;103373;1303;22632;-25
2022/04/22 08:41:48;;;;;;;13.00;9.80;;;;;;;9.22;86.80;98829.36;103473;1303;25223;-25
2022/04/22 08:44:17;;;;;;;17.80;9.30;;;;;;;9.34;85.50;98826.13;103401;1304;24253;-27
2022/04/22 08:51:54;;;;;;;21.80;11.30;;;;;;;9.37;83.80;98827.95;103506;1302;24339;-31
2022/04/22 08:54:23;;;;;;;17.50;9.90;;;;;;;9.50;83.90;98826.20;103525;1303;23637;-27
2022/04/22 08:56:52;;;;;;;19.30;9.30;;;;;;;9.65;82.29;98821.89;103455;1303;22507;-31
2022/04/22 08:59:22;;;;;;;12.80;9.40;;;;;;;9.59;82.19;98821.92;103415;1303;23595;-31
2022/04/22 09:01:50;;;;;;;12.30;9.60;;;;;;;9.54;82.65;98816.73;103471;1303;24218;-31
2022/04/22 09:04:19;;;;;;;14.90;9.10;;;;;;;9.65;81.97;98815.04;103433;1303;22616;-26
2022/04/22 09:06:50;;;;;;;35.60;18.30;;;;;;;9.67;81.86;98806.26;103439;1303;22501;-25
2022/04/22 09:09:19;;;;;;;43.30;24.40;;;;;;;9.86;80.99;98811.21;103477;1303;25346;-23
2022/04/22 09:11:48;;;;;;;46.30;23.30;;;;;;;9.87;80.47;98811.05;103245;1303;24993;-24
2022/04/22 09:14:19;;;;;;;23.50;13.10;;;;;;;9.96;79.44;98810.88;103495;1303;24218;-28
2022/04/22 09:16:50;;;;;;;29.90;15.30;;;;;;;9.91;78.96;98812.16;103379;1303;25181;-27
2022/04/22 09:19:19;;;;;;;12.80;9.60;;;;;;;9.94;79.05;98812.83;103459;1303;24254;-27
2022/04/22 09:21:54;;;;;;;21.80;14.00;;;;;;;9.82;79.59;98812.41;103396;1303;22636;-31
2022/04/22 09:24:24;;;;;;;11.80;9.10;;;;;;;9.83;80.00;98809.48;103271;1303;22626;-29
2022/04/22 09:27:00;;;;;;;11.90;8.00;;;;;;;9.85;79.65;98805.40;103407;1303;24220;-29
2022/04/22 09:29:29;;;;;;;11.90;9.00;;;;;;;9.86;79.69;98802.84;103413;1303;24305;-29
2022/04/22 09:31:58;;;;;;;11.10;8.70;;;;;;;9.87;79.93;98804.12;103473;1303;23823;-25
2022/04/22 09:34:32;;;;;;;12.20;8.50;;;;;;;9.75;80.42;98807.70;103447;1303;24217;-28
2022/04/22 09:44:47;;;;;;;12.60;8.00;;;;;;;9.65;80.78;98804.69;103478;1303;24321;-26
2022/04/22 09:47:16;;;;;;;16.30;10.50;;;;;;;9.60;81.29;98806.11;103437;1303;24256;-28
2022/04/22 09:49:45;;;;;;;17.50;10.00;;;;;;;9.64;81.45;98806.13;103411;1303;22489;-28
2022/04/22 09:52:14;;;;;;;20.80;12.10;;;;;;;9.56;81.67;98812.72;103520;1303;24258;-27
2022/04/22 09:54:53;;;;;;;18.20;13.00;;;;;;;9.62;81.65;98808.77;103524;1303;22511;-31
2022/04/22 09:57:23;;;;;;;14.50;9.00;;;;;;;9.76;80.40;98801.97;103445;1303;24304;-26
2022/04/22 09:59:52;;;;;;;40.70;16.50;;;;;;;9.75;80.09;98799.83;103500;1303;25060;-29
2022/04/22 10:02:23;;;;;;;14.00;8.70;;;;;;;9.65;80.90;98798.83;103433;1303;24027;-25
2022/04/22 10:04:53;;;;;;;13.80;10.70;;;;;;;9.76;79.93;98799.54;103261;1303;25421;-25
2022/04/22 10:07:26;;;;;;;17.80;10.80;;;;;;;9.56;81.29;98800.55;103175;1303;24464;-25
2022/04/22 21:26:52;;;;;;;10.20;4.50;;;;;;;3.51;85.60;98831.39;103454;1303;24453;-25
2022/04/22 21:29:30;;;;;;;8.70;5.20;;;;;;;3.51;85.43;98832.00;103562;1302;25328;-30
2022/04/22 21:32:00;;;;;;;10.30;5.90;;;;;;;3.48;85.51;98835.31;103420;1303;24198;-28
2022/04/22 21:34:29;;;;;;;13.60;7.90;;;;;;;3.44;85.31;98841.91;103337;1303;24196;-25
2022/04/22 21:36:58;;;;;;;17.60;8.90;;;;;;;3.37;85.55;98841.27;103489;1303;22528;-25
2022/04/22 21:39:27;;;;;;;33.30;15.30;;;;;;;3.28;85.67;98840.66;103452;1303;23605;-30
2022/04/22 21:41:56;;;;;;;17.10;8.50;;;;;;;3.18;85.97;98844.86;103503;1303;23583;-29
2022/04/22 21:44:25;;;;;;;19.60;10.90;;;;;;;3.13;86.27;98844.32;103456;1303;24977;-25
2022/04/22 21:46:54;;;;;;;19.80;9.00;;;;;;;3.05;86.66;98844.36;103424;1303;22513;-29
2022/04/22 21:49:23;;;;;;;14.90;7.30;;;;;;;2.96;87.10;98844.93;103410;1303;24240;-30
2022/04/22 21:51:52;;;;;;;20.80;7.40;;;;;;;2.88;87.62;98842.19;103461;1303;23599;-25
2022/04/22 21:54:21;;;;;;;27.60;8.20;;;;;;;2.85;87.95;98845.55;103458;1303;22524;-29
2022/04/22 21:56:50;;;;;;;13.10;6.90;;;;;;;2.80;88.25;98848.55;103444;1303;22576;-30
2022/04/22 21:59:19;;;;;;;23.30;8.90;;;;;;;2.73;88.69;98847.08;103419;1303;23536;-28
2022/04/22 22:01:49;;;;;;;48.30;13.90;;;;;;;2.70;89.07;98850.98;103456;1302;22731;-31
2022/04/22 22:04:18;;;;;;;41.50;12.80;;;;;;;2.67;88.99;98849.90;103464;1303;24329;-25
2022/04/22 22:06:48;;;;;;;30.40;10.20;;;;;;;2.63;89.36;98848.73;103466;1303;25498;-28
2022/04/22 22:09:18;;;;;;;42.50;12.40;;;;;;;2.57;90.10;98846.89;103480;1303;25946;-29
2022/04/22 22:11:47;;;;;;;38.70;10.20;;;;;;;2.52;90.07;98844.20;103442;1303;23631;-27
2022/04/22 22:14:16;;;;;;;22.40;10.40;;;;;;;2.47;90.32;98847.23;103308;1304;24212;-27
2022/04/22 22:16:45;;;;;;;24.30;8.80;;;;;;;2.43;91.08;98849.73;103501;1303;22505;-27
2022/04/22 22:19:14;;;;;;;24.40;10.00;;;;;;;2.38;91.77;98852.84;103540;1303;23361;-26
2022/04/22 22:21:43;;;;;;;29.10;10.30;;;;;;;2.35;92.24;98854.75;103491;1303;22502;-25
2022/04/22 22:24:12;;;;;;;28.90;8.90;;;;;;;2.34;92.42;98854.55;103431;1302;24224;-27
2022/04/22 22:26:41;;;;;;;26.80;11.70;;;;;;;2.32;92.48;98853.31;103464;1303;24979;-27
2022/04/22 22:29:10;;;;;;;42.70;15.20;;;;;;;2.32;92.51;98850.70;103441;1303;23800;-26
2022/04/22 22:31:39;;;;;;;50.00;19.30;;;;;;;2.29;92.76;98848.16;103265;1303;24128;-30
2022/04/22 22:34:08;;;;;;;34.20;13.50;;;;;;;2.23;92.85;98845.55;103438;1303;24221;-30
2022/04/22 22:36:37;;;;;;;57.80;16.80;;;;;;;2.19;93.38;98846.55;103408;1303;23746;-27
2022/04/22 22:39:06;;;;;;;41.90;15.40;;;;;;;2.13;94.01;98841.64;103439;1303;25149;-30
2022/04/22 22:41:35;;;;;;;28.30;12.80;;;;;;;2.13;94.27;98841.11;103469;1303;23778;-29
2022/04/22 22:44:05;;;;;;;33.00;14.60;;;;;;;2.11;94.66;98840.48;103440;1303;22629;-27
2022/04/22 22:46:34;;;;;;;22.80;9.50;;;;;;;2.08;95.11;98832.26;103490;1303;22621;-28
2022/04/22 22:49:03;;;;;;;19.40;9.60;;;;;;;2.09;95.51;98831.33;103527;1303;24986;-29
2022/04/22 22:51:32;;;;;;;30.80;12.30;;;;;;;2.08;95.69;98831.36;103458;1303;22958;-25
2022/04/22 22:54:01;;;;;;;17.30;10.40;;;;;;;2.09;95.62;98830.94;103442;1303;22612;-25
2022/04/22 22:56:30;;;;;;;25.70;10.60;;;;;;;2.09;95.52;98828.09;103408;1303;23628;-29
2022/04/22 22:58:59;;;;;;;19.10;9.20;;;;;;;2.07;95.49;98823.05;103457;1302;23776;-28
2022/04/22 23:01:28;;;;;;;19.20;9.70;;;;;;;2.05;96.05;98824.52;103485;1303;24365;-31
2022/04/22 23:03:58;;;;;;;17.40;10.30;;;;;;;2.02;96.34;98822.02;103415;1303;23789;-29
2022/04/22 23:06:27;;;;;;;27.60;10.70;;;;;;;1.99;96.36;98821.20;103405;1303;24224;-29
2022/04/22 23:08:57;;;;;;;40.50;12.20;;;;;;;1.95;96.14;98816.70;103408;1303;23800;-25
2022/04/22 23:11:26;;;;;;;30.60;11.80;;;;;;;1.91;96.01;98817.80;103504;1303;24287;-29
2022/04/22 23:13:56;;;;;;;29.70;12.40;;;;;;;1.86;96.46;98819.55;103245;1303;24240;-25
2022/04/22 23:16:26;;;;;;;24.70;10.40;;;;;;;1.82;96.64;98814.56;103433;1303;22783;-26
2022/04/22 23:18:55;;;;;;;23.10;11.60;;;;;;;1.79;97.40;98813.55;103458;1303;24013;-27
2022/04/22 23:21:24;;;;;;;29.40;12.90;;;;;;;1.75;97.57;98816.01;103449;1303;23797;-28
2022/04/22 23:23:53;;;;;;;38.00;14.00;;;;;;;1.71;97.47;98816.58;103424;1303;22533;-25
2022/04/22 23:26:22;;;;;;;25.60;13.40;;;;;;;1.67;97.87;98813.17;103405;1303;23599;-26
2022/04/22 23:28:51;;;;;;;35.20;12.60;;;;;;;1.61;98.11;98807.60;103441;1303;23858;-28
2022/04/22 23:31:20;;;;;;;28.00;12.30;;;;;;;1.55;98.64;98805.20;103473;1303;22863;-29
2022/04/22 23:33:49;;;;;;;23.90;11.90;;;;;;;1.52;99.00;98804.75;103481;1303;22847;-29
2022/04/22 23:36:18;;;;;;;17.40;10.90;;;;;;;1.52;99.03;98805.09;103441;1302;23581;-29
2022/04/22 23:38:47;;;;;;;27.00;13.80;;;;;;;1.48;99.35;98803.94;103492;1303;24355;-25
2022/04/22 23:41:17;;;;;;;30.30;13.20;;;;;;;1.45;99.45;98802.88;103435;1303;23608;-28